createdAt,value
2022-08-22T00:01:12.934Z,99.90
2022-08-22T00:03:04.186Z,99.90
2022-08-22T00:03:55.846Z,99.90
2022-08-22T00:06:32.508Z,99.90
2022-08-22T00:09:09.770Z,99.90
2022-08-22T00:11:48.519Z,99.90
2022-08-22T00:14:23.258Z,99.90
2022-08-22T00:17:01.638Z,99.90
2022-08-22T00:19:45.970Z,99.90
2022-08-22T00:22:21.608Z,99.90
2022-08-22T00:24:57.715Z,99.90
2022-08-22T00:27:33.983Z,99.90
2022-08-22T00:30:10.065Z,99.90
2022-08-22T00:32:44.151Z,99.90
2022-08-22T00:35:20.775Z,99.90
2022-08-22T00:38:00.375Z,99.90
2022-08-22T00:40:37.338Z,99.90
2022-08-22T00:43:47.756Z,99.90
2022-08-22T00:46:44.993Z,99.90
2022-08-22T00:49:25.639Z,99.90
2022-08-22T00:52:30.575Z,99.90
2022-08-22T00:55:18.151Z,99.90
2022-08-22T00:58:09.503Z,99.90
2022-08-22T01:00:45.531Z,99.90
2022-08-22T01:03:46.687Z,99.90
2022-08-22T01:06:25.389Z,99.90
2022-08-22T01:09:10.428Z,99.90
2022-08-22T01:12:11.949Z,99.90
2022-08-22T01:14:46.801Z,99.90
2022-08-22T01:17:52.337Z,99.90
2022-08-22T01:21:24.286Z,99.90
2022-08-22T01:24:36.028Z,99.90
2022-08-22T01:27:38.480Z,99.90
2022-08-22T01:30:21.043Z,99.90
2022-08-22T01:33:29.764Z,99.90
2022-08-22T01:36:19.002Z,99.90
2022-08-22T01:39:31.752Z,99.90
2022-08-22T01:42:32.260Z,99.90
2022-08-22T01:45:26.463Z,99.90
2022-08-22T01:48:01.389Z,99.90
2022-08-22T01:50:35.613Z,99.90
2022-08-22T01:53:10.244Z,99.90
2022-08-22T01:55:44.760Z,99.90
2022-08-22T01:58:19.061Z,99.90
2022-08-22T02:01:08.349Z,99.90
2022-08-22T02:03:43.791Z,99.90
2022-08-22T02:06:17.323Z,99.90
2022-08-22T02:08:55.106Z,99.90
2022-08-22T02:11:45.709Z,99.90
2022-08-22T02:14:36.592Z,99.90
2022-08-22T02:17:17.716Z,99.90
2022-08-22T02:19:58.477Z,99.90
2022-08-22T02:22:44.383Z,99.90
2022-08-22T02:25:21.071Z,99.90
2022-08-22T02:27:57.450Z,99.90
2022-08-22T02:30:43.818Z,99.90
2022-08-22T02:33:22.959Z,99.90
2022-08-22T02:35:59.914Z,99.90
2022-08-22T02:38:34.795Z,99.90
2022-08-22T02:41:17.551Z,99.90
2022-08-22T02:43:50.170Z,99.90
2022-08-22T02:46:29.499Z,99.90
2022-08-22T02:49:10.071Z,99.90
2022-08-22T02:51:51.162Z,99.90
2022-08-22T02:54:26.956Z,99.90
2022-08-22T02:57:05.279Z,99.90
2022-08-22T02:59:40.114Z,99.90
2022-08-22T03:02:35.773Z,99.90
2022-08-22T03:05:19.127Z,99.90
2022-08-22T03:07:54.149Z,99.90
2022-08-22T03:10:29.324Z,99.90
2022-08-22T03:13:08.754Z,99.90
2022-08-22T03:15:48.434Z,99.90
2022-08-22T03:18:23.692Z,99.90
2022-08-22T03:20:59.059Z,99.90
2022-08-22T03:23:36.845Z,99.90
2022-08-22T03:26:14.391Z,99.90
2022-08-22T03:28:59.808Z,99.90
2022-08-22T03:31:30.251Z,99.90
2022-08-22T03:34:23.879Z,99.90
2022-08-22T03:37:06.704Z,99.90
2022-08-22T03:39:55.477Z,99.90
2022-08-22T03:43:00.292Z,99.90
2022-08-22T03:45:58.144Z,99.90
2022-08-22T03:48:51.585Z,99.90
2022-08-22T03:51:41.864Z,99.90
2022-08-22T03:54:39.104Z,99.90
2022-08-22T03:57:44.364Z,99.90
2022-08-22T04:00:26.405Z,99.90
2022-08-22T04:03:46.518Z,99.90
2022-08-22T04:06:42.360Z,99.90
2022-08-22T04:09:44.078Z,99.90
2022-08-22T04:12:46.271Z,99.90
2022-08-22T04:15:32.309Z,99.90
2022-08-22T04:18:41.405Z,99.90
2022-08-22T04:21:32.689Z,99.90
2022-08-22T04:24:20.244Z,99.90
2022-08-22T04:26:53.902Z,99.90
2022-08-22T04:29:27.881Z,99.90
2022-08-22T04:32:10.585Z,99.90
2022-08-22T04:34:47.050Z,99.90
2022-08-22T04:37:24.761Z,99.90
2022-08-22T04:39:58.353Z,99.90
2022-08-22T04:42:33.639Z,99.90
2022-08-22T04:45:08.061Z,99.90
2022-08-22T04:47:40.150Z,99.90
2022-08-22T04:50:16.802Z,99.90
2022-08-22T04:53:10.795Z,99.90
2022-08-22T04:55:51.112Z,99.90
2022-08-22T04:58:40.451Z,99.90
2022-08-22T05:01:17.645Z,99.90
2022-08-22T05:03:52.791Z,99.90
2022-08-22T05:06:26.436Z,99.90
2022-08-22T05:09:00.041Z,99.90
2022-08-22T05:11:30.477Z,99.90
2022-08-22T05:14:04.157Z,99.90
2022-08-22T05:16:39.153Z,99.90
2022-08-22T05:19:14.442Z,99.90
2022-08-22T05:21:48.249Z,99.90
2022-08-22T05:24:28.767Z,99.90
2022-08-22T05:27:00.340Z,99.90
2022-08-22T05:29:32.052Z,99.90
2022-08-22T05:32:04.300Z,99.90
2022-08-22T05:34:38.152Z,99.90
2022-08-22T05:37:13.085Z,99.90
2022-08-22T05:39:47.765Z,99.90
2022-08-22T05:42:23.695Z,99.90
2022-08-22T05:44:52.374Z,99.90
2022-08-22T05:47:24.542Z,99.90
2022-08-22T05:50:02.184Z,99.90
2022-08-22T05:52:45.237Z,99.90
2022-08-22T05:55:25.464Z,99.90
2022-08-22T05:58:13.935Z,99.90
2022-08-22T06:00:45.546Z,99.90
2022-08-22T06:03:19.859Z,99.90
2022-08-22T06:05:54.062Z,99.90
2022-08-22T06:08:27.327Z,99.90
2022-08-22T06:11:02.625Z,99.90
2022-08-22T06:13:35.666Z,99.90
2022-08-22T06:16:11.731Z,99.90
2022-08-22T06:18:43.484Z,99.90
2022-08-22T06:21:18.804Z,99.90
2022-08-22T06:23:51.560Z,99.90
2022-08-22T06:26:22.563Z,99.90
2022-08-22T06:28:57.731Z,99.90
2022-08-22T06:31:33.197Z,99.90
2022-08-22T06:34:06.952Z,99.90
2022-08-22T06:36:39.362Z,99.90
2022-08-22T06:39:12.816Z,99.90
2022-08-22T06:41:48.973Z,99.90
2022-08-22T06:44:21.470Z,99.90
2022-08-22T06:46:53.510Z,99.90
2022-08-22T06:49:24.249Z,99.90
2022-08-22T06:51:54.176Z,99.90
2022-08-22T06:54:32.490Z,99.90
2022-08-22T06:57:06.653Z,99.90
2022-08-22T06:59:39.308Z,99.90
2022-08-22T07:02:20.940Z,99.90
2022-08-22T07:04:52.209Z,99.90
2022-08-22T07:07:25.165Z,99.90
2022-08-22T07:09:55.604Z,99.90
2022-08-22T07:12:30.635Z,99.90
2022-08-22T07:15:12.814Z,99.90
2022-08-22T07:17:51.426Z,99.90
2022-08-22T07:20:25.878Z,99.90
2022-08-22T07:22:58.456Z,99.90
2022-08-22T07:25:28.094Z,99.90
2022-08-22T07:28:21.173Z,99.90
2022-08-22T07:31:12.928Z,99.90
2022-08-22T07:33:48.658Z,99.90
2022-08-22T07:36:31.599Z,99.90
2022-08-22T07:39:23.635Z,99.90
2022-08-22T07:42:07.073Z,99.50
2022-08-22T07:44:55.247Z,97.90
2022-08-22T07:47:26.819Z,96.70
2022-08-22T07:50:02.252Z,95.30
2022-08-22T07:52:43.695Z,93.80
2022-08-22T07:55:18.943Z,93.00
2022-08-22T07:57:52.545Z,92.30
2022-08-22T08:00:25.897Z,92.00
2022-08-22T08:02:58.314Z,90.80
2022-08-22T08:05:30.462Z,90.10
2022-08-22T08:08:05.863Z,90.10
2022-08-22T08:10:37.947Z,88.60
2022-08-22T08:13:10.319Z,87.40
2022-08-22T08:15:41.782Z,86.20
2022-08-22T08:18:19.344Z,86.70
2022-08-22T08:20:51.983Z,87.70
2022-08-22T08:23:23.603Z,88.60
2022-08-22T08:26:03.555Z,90.50
2022-08-22T08:28:34.161Z,90.60
2022-08-22T08:31:09.361Z,90.80
2022-08-22T08:33:42.090Z,91.00
2022-08-22T08:36:29.995Z,91.70
2022-08-22T08:39:10.320Z,92.40
2022-08-22T08:42:29.769Z,93.10
2022-08-22T08:45:37.726Z,91.80
2022-08-22T08:48:28.911Z,91.20
2022-08-22T08:51:19.239Z,91.50
2022-08-22T08:54:24.158Z,91.10
2022-08-22T08:57:03.307Z,91.30
2022-08-22T08:59:46.979Z,91.50
2022-08-22T09:02:33.088Z,92.10
2022-08-22T09:05:35.357Z,91.60
2022-08-22T09:08:31.569Z,91.80
2022-08-22T09:11:34.397Z,91.40
2022-08-22T09:14:18.445Z,91.40
2022-08-22T09:17:09.886Z,91.00
2022-08-22T09:20:17.654Z,90.70
2022-08-22T09:23:24.170Z,91.30
2022-08-22T09:25:57.707Z,91.30
2022-08-22T09:28:33.465Z,91.50
2022-08-22T09:31:51.859Z,91.50
2022-08-22T09:34:28.151Z,91.70
2022-08-22T09:37:23.991Z,92.60
2022-08-22T09:40:03.887Z,93.30
2022-08-22T09:42:44.920Z,93.20
2022-08-22T09:45:43.042Z,93.30
2022-08-22T09:48:26.606Z,93.50
2022-08-22T09:51:28.773Z,93.50
2022-08-22T09:54:13.240Z,93.90
2022-08-22T09:56:53.522Z,94.10
2022-08-22T09:59:31.694Z,93.40
2022-08-22T10:02:15.922Z,93.30
2022-08-22T10:04:58.211Z,93.60
2022-08-22T10:08:05.537Z,93.70
2022-08-22T10:11:04.030Z,93.80
2022-08-22T10:13:47.809Z,93.60
2022-08-22T10:16:44.138Z,93.50
2022-08-22T10:19:19.505Z,93.30
2022-08-22T10:22:07.672Z,93.00
2022-08-22T10:24:44.983Z,93.10
2022-08-22T10:27:17.302Z,93.70
2022-08-22T10:29:59.154Z,94.40
2022-08-22T10:32:34.706Z,94.20
2022-08-22T10:35:10.548Z,94.20
2022-08-22T10:37:50.305Z,93.90
2022-08-22T10:40:27.059Z,93.80
2022-08-22T10:43:00.915Z,93.40
2022-08-22T10:45:36.159Z,93.00
2022-08-22T10:48:35.682Z,92.70
2022-08-22T10:51:25.717Z,92.60
2022-08-22T10:54:28.325Z,92.40
2022-08-22T10:57:09.702Z,90.90
2022-08-22T10:59:44.808Z,91.20
2022-08-22T11:02:53.190Z,91.80
2022-08-22T11:05:43.143Z,91.60
2022-08-22T11:08:52.811Z,91.10
2022-08-22T11:11:32.954Z,91.60
2022-08-22T11:14:25.541Z,90.70
2022-08-22T11:17:23.654Z,90.50
2022-08-22T11:20:19.466Z,90.90
2022-08-22T11:23:04.508Z,91.20
2022-08-22T11:25:45.478Z,89.90
2022-08-22T11:28:46.423Z,90.20
2022-08-22T11:31:24.400Z,88.50
2022-08-22T11:33:59.021Z,90.10
2022-08-22T11:36:37.340Z,87.70
2022-08-22T11:39:23.615Z,86.30
2022-08-22T11:41:59.894Z,85.70
2022-08-22T11:44:32.293Z,86.40
2022-08-22T11:47:09.546Z,86.10
2022-08-22T11:49:53.772Z,82.70
2022-08-22T11:52:42.615Z,81.70
2022-08-22T11:55:33.026Z,82.60
2022-08-22T11:58:17.690Z,81.90
2022-08-22T12:00:55.393Z,81.90
2022-08-22T12:03:58.362Z,82.00
2022-08-22T12:06:56.044Z,81.40
2022-08-22T12:09:41.271Z,81.50
2022-08-22T12:12:32.691Z,81.50
2022-08-22T12:15:10.299Z,81.60
2022-08-22T12:18:09.395Z,81.10
2022-08-22T12:20:56.071Z,80.10
2022-08-22T12:23:49.476Z,80.80
2022-08-22T12:26:27.490Z,79.70
2022-08-22T12:29:19.796Z,80.50
2022-08-22T12:32:33.920Z,79.00
2022-08-22T12:35:30.505Z,79.60
2022-08-22T12:38:29.387Z,79.30
2022-08-22T12:41:10.249Z,78.70
2022-08-22T12:43:50.399Z,76.00
2022-08-22T12:46:34.975Z,76.10
2022-08-22T12:49:25.532Z,77.30
2022-08-22T12:52:11.811Z,77.50
2022-08-22T12:55:07.653Z,77.70
2022-08-22T12:57:44.725Z,77.60
2022-08-22T13:00:26.808Z,77.40
2022-08-22T13:02:59.786Z,78.10
2022-08-22T13:05:30.235Z,78.20
2022-08-22T13:08:05.689Z,78.10
2022-08-22T13:10:43.249Z,78.40
2022-08-22T13:13:25.729Z,79.50
2022-08-22T13:16:08.397Z,78.10
2022-08-22T13:18:44.804Z,78.80
2022-08-22T13:21:21.564Z,79.60
2022-08-22T13:23:55.264Z,79.60
2022-08-22T13:26:32.834Z,78.80
2022-08-22T13:29:26.142Z,78.40
2022-08-22T13:32:00.446Z,77.00
2022-08-22T13:34:40.098Z,76.80
2022-08-22T13:37:16.311Z,77.70
2022-08-22T13:39:49.069Z,76.70
2022-08-22T13:42:30.330Z,76.30
2022-08-22T13:45:05.735Z,76.40
2022-08-22T13:47:39.487Z,76.10
2022-08-22T13:50:14.987Z,74.80
2022-08-22T13:52:55.140Z,74.60
2022-08-22T13:55:31.630Z,74.80
2022-08-22T13:58:11.271Z,74.90
2022-08-22T14:01:10.645Z,74.90
2022-08-22T14:03:48.517Z,75.50
2022-08-22T14:06:37.086Z,76.10
2022-08-22T14:09:31.360Z,76.30
2022-08-22T14:12:14.950Z,75.50
2022-08-22T14:14:46.929Z,75.40
2022-08-22T14:17:23.211Z,75.90
2022-08-22T14:20:01.566Z,75.80
2022-08-22T14:22:35.696Z,75.50
2022-08-22T14:25:09.185Z,75.50
2022-08-22T14:27:43.888Z,75.90
2022-08-22T14:30:18.833Z,76.80
2022-08-22T14:32:51.612Z,75.80
2022-08-22T14:35:35.036Z,75.90
2022-08-22T14:38:30.282Z,76.70
2022-08-22T14:41:03.668Z,76.20
2022-08-22T14:43:58.284Z,75.50
2022-08-22T14:46:31.612Z,74.40
2022-08-22T14:49:26.920Z,75.30
2022-08-22T14:52:08.831Z,74.10
2022-08-22T14:54:39.915Z,74.80
2022-08-22T14:57:19.905Z,74.10
2022-08-22T14:59:51.324Z,74.00
2022-08-22T15:02:29.249Z,74.10
2022-08-22T15:05:02.125Z,73.50
2022-08-22T15:07:36.464Z,73.90
2022-08-22T15:10:20.712Z,73.10
2022-08-22T15:12:53.908Z,73.10
2022-08-22T15:15:49.742Z,72.80
2022-08-22T15:18:35.905Z,73.00
2022-08-22T15:21:08.529Z,72.70
2022-08-22T15:23:44.791Z,73.30
2022-08-22T15:26:24.957Z,72.50
2022-08-22T15:29:08.995Z,72.30
2022-08-22T15:31:41.487Z,72.90
2022-08-22T15:34:18.174Z,72.80
2022-08-22T15:37:11.951Z,72.80
2022-08-22T15:40:02.993Z,72.50
2022-08-22T15:42:42.047Z,72.40
2022-08-22T15:45:22.418Z,72.80
2022-08-22T15:47:53.362Z,73.20
2022-08-22T15:50:35.961Z,73.10
2022-08-22T15:53:14.864Z,73.70
2022-08-22T15:56:24.443Z,73.40
2022-08-22T15:59:27.480Z,73.10
2022-08-22T16:02:04.909Z,72.50
2022-08-22T16:04:47.482Z,73.50
2022-08-22T16:07:34.103Z,71.90
2022-08-22T16:10:07.892Z,71.30
2022-08-22T16:12:41.559Z,70.20
2022-08-22T16:16:01.662Z,69.60
2022-08-22T16:19:10.783Z,69.80
2022-08-22T16:22:13.880Z,69.80
2022-08-22T16:25:03.483Z,69.20
2022-08-22T16:27:32.177Z,69.70
2022-08-22T16:30:33.596Z,70.10
2022-08-22T16:33:02.843Z,70.20
2022-08-22T16:36:26.113Z,70.40
2022-08-22T16:38:58.259Z,70.60
2022-08-22T16:41:33.666Z,70.60
2022-08-22T16:44:35.902Z,70.60
2022-08-22T16:47:16.207Z,69.50
2022-08-22T16:50:00.483Z,69.90
2022-08-22T16:52:54.025Z,70.10
2022-08-22T16:55:42.843Z,69.90
2022-08-22T16:58:55.909Z,69.70
2022-08-22T17:01:35.262Z,69.80
2022-08-22T17:04:14.865Z,70.90
2022-08-22T17:07:05.210Z,70.50
2022-08-22T17:09:57.092Z,70.10
2022-08-22T17:12:35.281Z,70.30
2022-08-22T17:15:15.152Z,70.50
2022-08-22T17:17:58.986Z,70.30
2022-08-22T17:20:41.736Z,70.40
2022-08-22T17:23:20.175Z,70.50
2022-08-22T17:26:00.205Z,71.00
2022-08-22T17:28:40.793Z,71.60
2022-08-22T17:31:16.682Z,72.00
2022-08-22T17:34:13.919Z,72.10
2022-08-22T17:36:57.074Z,72.30
2022-08-22T17:39:38.183Z,72.20
2022-08-22T17:42:26.572Z,71.90
2022-08-22T17:45:04.520Z,71.60
2022-08-22T17:47:43.188Z,72.20
2022-08-22T17:50:19.768Z,72.50
2022-08-22T17:52:54.622Z,72.90
2022-08-22T17:55:28.339Z,72.90
2022-08-22T17:58:05.329Z,76.00
2022-08-22T18:00:38.541Z,78.60
2022-08-22T18:03:16.283Z,80.40
2022-08-22T18:05:51.992Z,81.60
2022-08-22T18:09:13.354Z,81.80
2022-08-22T18:11:28.572Z,83.00
2022-08-22T18:14:05.172Z,83.70
2022-08-22T18:16:39.252Z,84.00
2022-08-22T18:19:13.469Z,85.60
2022-08-22T18:21:49.702Z,86.80
2022-08-22T18:24:29.099Z,87.30
2022-08-22T18:27:03.408Z,89.40
2022-08-22T18:29:43.459Z,89.80
2022-08-22T18:32:19.714Z,90.90
2022-08-22T18:34:54.907Z,90.80
2022-08-22T18:37:47.434Z,91.40
2022-08-22T18:40:31.065Z,91.90
2022-08-22T18:43:12.988Z,92.70
2022-08-22T18:46:04.105Z,93.00
2022-08-22T18:48:59.537Z,93.20
2022-08-22T18:51:34.938Z,93.60
2022-08-22T18:54:33.603Z,93.50
2022-08-22T18:57:10.943Z,93.70
2022-08-22T19:00:04.462Z,93.70
2022-08-22T19:03:05.305Z,94.10
2022-08-22T19:05:51.212Z,94.00
2022-08-22T19:08:53.636Z,94.00
2022-08-22T19:11:41.033Z,94.40
2022-08-22T19:14:34.082Z,95.40
2022-08-22T19:17:21.852Z,95.70
2022-08-22T19:20:14.978Z,95.40
2022-08-22T19:22:45.195Z,95.40
2022-08-22T19:25:26.282Z,96.10
2022-08-22T19:28:23.967Z,96.20
2022-08-22T19:31:16.554Z,97.20
2022-08-22T19:33:50.060Z,97.50
2022-08-22T19:36:33.405Z,98.00
2022-08-22T19:39:09.191Z,98.30
2022-08-22T19:41:47.201Z,98.00
2022-08-22T19:44:35.051Z,98.10
2022-08-22T19:47:24.066Z,98.60
2022-08-22T19:50:00.392Z,98.80
2022-08-22T19:52:46.625Z,99.40
2022-08-22T19:55:23.595Z,99.70
2022-08-22T19:58:06.444Z,99.70
2022-08-22T20:00:53.634Z,99.90
2022-08-22T20:03:37.490Z,99.90
2022-08-22T20:06:33.499Z,99.90
2022-08-22T20:09:18.604Z,99.90
2022-08-22T20:11:54.961Z,99.90
2022-08-22T20:14:30.100Z,99.90
2022-08-22T20:17:05.623Z,99.90
2022-08-22T20:20:16.381Z,99.90
2022-08-22T20:22:42.498Z,99.90
2022-08-22T20:25:42.134Z,99.90
2022-08-22T20:28:09.649Z,99.90
2022-08-22T20:30:42.226Z,99.90
2022-08-22T20:33:14.709Z,99.90
2022-08-22T20:35:51.524Z,99.90
2022-08-22T20:38:24.473Z,99.90
2022-08-22T20:41:11.188Z,99.90
2022-08-22T20:43:44.401Z,99.90
2022-08-22T20:46:28.001Z,99.90
2022-08-22T20:48:57.316Z,99.90
2022-08-22T20:51:34.688Z,99.90
2022-08-22T20:54:10.303Z,99.90
2022-08-22T20:56:53.593Z,99.90
2022-08-22T20:59:27.479Z,99.90
2022-08-22T21:02:03.781Z,99.90
2022-08-22T21:04:42.898Z,99.90
2022-08-22T21:07:12.900Z,99.90
2022-08-22T21:10:02.669Z,99.90
2022-08-22T21:12:31.356Z,99.90
2022-08-22T21:14:59.853Z,99.90
2022-08-22T21:17:34.504Z,99.90
2022-08-22T21:20:19.970Z,99.90
2022-08-22T21:22:50.328Z,99.90
2022-08-22T21:25:19.024Z,99.90
2022-08-22T21:27:49.639Z,99.90
2022-08-22T21:30:26.644Z,99.90
2022-08-22T21:32:58.015Z,99.90
2022-08-22T21:35:29.709Z,99.90
2022-08-22T21:38:02.336Z,99.90
2022-08-22T21:40:34.123Z,99.90
2022-08-22T21:43:07.205Z,99.90
2022-08-22T21:45:42.572Z,99.90
2022-08-22T21:48:34.379Z,99.90
2022-08-22T21:51:39.107Z,99.90
2022-08-22T21:54:40.301Z,99.90
2022-08-22T21:57:22.060Z,99.90
2022-08-22T21:59:59.129Z,99.90
2022-08-22T22:02:40.392Z,99.90
2022-08-22T22:05:12.352Z,99.90
2022-08-22T22:07:42.918Z,99.90
2022-08-22T22:10:15.575Z,99.90
2022-08-22T22:12:45.585Z,99.90
2022-08-22T22:15:17.896Z,99.90
2022-08-22T22:17:46.498Z,99.90
2022-08-22T22:20:16.252Z,99.90
2022-08-22T22:22:47.079Z,99.90
2022-08-22T22:25:40.008Z,99.90
2022-08-22T22:28:11.297Z,99.90
2022-08-22T22:30:40.301Z,99.90
2022-08-22T22:33:08.727Z,99.90
2022-08-22T22:35:40.071Z,99.90
2022-08-22T22:38:09.410Z,99.90
2022-08-22T22:40:42.707Z,99.90
2022-08-22T22:43:11.639Z,99.90
2022-08-22T22:45:41.083Z,99.90
2022-08-22T22:48:09.833Z,99.90
2022-08-22T22:50:40.947Z,99.90
2022-08-22T22:53:09.579Z,99.90
2022-08-22T22:55:41.693Z,99.90
2022-08-22T22:58:10.597Z,99.90
2022-08-22T23:00:39.160Z,99.90
2022-08-22T23:03:07.872Z,99.90
2022-08-22T23:05:36.443Z,99.90
2022-08-22T23:08:05.276Z,99.90
2022-08-22T23:10:34.536Z,99.90
2022-08-22T23:13:06.580Z,99.90
2022-08-22T23:15:35.006Z,99.90
2022-08-22T23:18:03.515Z,99.90
2022-08-22T23:20:32.173Z,99.90
2022-08-22T23:23:05.027Z,99.90
2022-08-22T23:25:33.545Z,99.90
2022-08-22T23:28:03.760Z,99.90
2022-08-22T23:30:32.336Z,99.90
2022-08-22T23:33:00.838Z,99.90
2022-08-22T23:35:30.868Z,99.90
2022-08-22T23:38:02.032Z,99.90
2022-08-22T23:40:30.686Z,99.90
2022-08-22T23:42:59.352Z,99.90
2022-08-22T23:45:32.376Z,99.90
2022-08-22T23:48:03.952Z,99.90
2022-08-22T23:50:32.380Z,99.90
2022-08-22T23:53:00.838Z,99.90
2022-08-22T23:55:29.370Z,99.90
2022-08-22T23:57:58.173Z,99.90
